High gust

Not for real navigation. The accuracy of this data is not assured See disclaimer for more information



ICAO NAME COUNTRY WIND Kt GUST Kt VIS m TEMP/DEW C BARO METAR
OISA Abadeh Iran 26 60 9999 20/-2 29.93 OISA 221000Z 23026G60KT 9999 SCT040TCU 20/M02 Q1013 A2993
CWRU Solander Island Meteorological Canada 52 58 9999 7/0 29.92 CWRU 221000Z AUTO 11052G58KT 07/ RMK AO1 4PAST HR 6023 PK WND 11063/0932 SLP128 P0021 T0072 50124
LICG Pantelleria Italy 31 48 5000 18/13 29.56 LICG 220950Z 10031G48KT 070V130 5000 BR SCT015 18/13 Q1001
LICT Trapani / Birgi Italy 35 47 9999 24/16 29.56 LICT 220955Z 13035G47KT 9999 FEW033 24/16 Q1001 RMK BKN BKN200 VIS MIN 9999 WIND THR13 12034G47KT BL
CWWL Bonilla Island Meteorological Canada 39 47 9999 8/8 29.92 CWWL 221000Z AUTO 15039G47KT 08/08 RMK AO1 4PAST HR 8042 PK WND 16052/0945 SLP993 P0002 T00830075 50

Show more